createdAt,value
2019-04-27T00:00:49.700Z,68.01
2019-04-27T00:01:49.848Z,69.25
2019-04-27T00:02:49.995Z,70.30
2019-04-27T00:03:50.143Z,69.73
2019-04-27T00:04:52.872Z,68.40
2019-04-27T00:05:50.438Z,67.35
2019-04-27T00:06:50.585Z,68.11
2019-04-27T00:07:51.454Z,67.25
2019-04-27T00:08:50.879Z,67.25
2019-04-27T00:09:51.887Z,67.73
2019-04-27T00:10:51.169Z,68.01
2019-04-27T00:11:53.127Z,68.96
2019-04-27T00:12:52.966Z,69.73
2019-04-27T00:13:51.612Z,70.10
2019-04-27T00:14:54.423Z,70.68
2019-04-27T00:15:53.687Z,71.06
2019-04-27T00:16:53.602Z,71.15
2019-04-27T00:17:56.732Z,71.34
2019-04-27T00:18:54.839Z,70.58
2019-04-27T00:19:53.441Z,69.44
2019-04-27T00:20:53.592Z,67.22
2019-04-27T00:21:52.962Z,65.16
2019-04-27T00:22:53.507Z,64.50
2019-04-27T00:23:53.243Z,64.27
2019-04-27T00:24:53.253Z,63.89
2019-04-27T00:25:53.374Z,63.26
2019-04-27T00:26:54.049Z,63.23
2019-04-27T00:27:53.666Z,63.32
2019-04-27T00:28:53.907Z,63.70
2019-04-27T00:29:53.960Z,63.51
2019-04-27T00:30:54.109Z,62.85
2019-04-27T00:31:55.766Z,63.89
2019-04-27T00:32:54.397Z,64.08
2019-04-27T00:33:54.543Z,63.70
2019-04-27T00:34:54.693Z,63.70
2019-04-27T00:35:54.834Z,63.64
2019-04-27T00:36:54.981Z,64.08
2019-04-27T00:37:55.127Z,64.84
2019-04-27T00:38:55.275Z,64.46
2019-04-27T00:39:55.422Z,63.60
2019-04-27T00:40:55.569Z,62.94
2019-04-27T00:41:55.719Z,62.75
2019-04-27T00:42:55.862Z,62.56
2019-04-27T00:43:56.010Z,63.04
2019-04-27T00:44:56.156Z,63.23
2019-04-27T00:45:56.304Z,62.46
2019-04-27T00:46:56.450Z,62.18
2019-04-27T00:47:59.704Z,61.99
2019-04-27T00:48:56.741Z,61.80
2019-04-27T00:49:56.890Z,61.61
2019-04-27T00:50:57.036Z,61.13
2019-04-27T00:51:57.180Z,60.47
2019-04-27T00:52:57.325Z,60.94
2019-04-27T00:53:57.472Z,60.47
2019-04-27T00:54:57.618Z,60.18
2019-04-27T00:55:57.762Z,59.80
2019-04-27T00:56:57.911Z,60.47
2019-04-27T00:57:59.035Z,61.04
2019-04-27T00:58:58.199Z,60.66
2019-04-27T00:59:58.346Z,60.94
2019-04-27T01:00:58.493Z,60.75
2019-04-27T01:01:58.639Z,60.47
2019-04-27T01:02:58.790Z,61.42
2019-04-27T01:03:58.929Z,61.99
2019-04-27T01:04:59.076Z,61.42
2019-04-27T01:05:59.222Z,61.23
2019-04-27T01:06:59.370Z,60.85
2019-04-27T01:07:59.517Z,60.66
2019-04-27T01:08:59.663Z,60.18
2019-04-27T01:09:59.809Z,60.18
2019-04-27T01:10:59.954Z,59.42
2019-04-27T01:12:00.103Z,60.47
2019-04-27T01:13:00.247Z,60.94
2019-04-27T01:14:00.393Z,60.57
2019-04-27T01:15:00.545Z,60.66
2019-04-27T01:16:00.685Z,60.66
2019-04-27T01:17:00.830Z,60.18
2019-04-27T01:18:11.616Z,59.80
2019-04-27T01:19:01.122Z,59.52
2019-04-27T01:20:01.274Z,59.90
2019-04-27T01:21:01.415Z,60.28
2019-04-27T01:22:01.561Z,60.66
2019-04-27T01:23:01.710Z,60.94
2019-04-27T01:24:01.854Z,60.94
2019-04-27T01:25:02.001Z,60.57
2019-04-27T01:26:02.148Z,60.28
2019-04-27T01:27:02.294Z,60.47
2019-04-27T01:28:02.441Z,61.32
2019-04-27T01:29:02.592Z,61.99
2019-04-27T01:30:02.735Z,61.99
2019-04-27T01:31:02.880Z,62.37
2019-04-27T01:32:03.027Z,62.37
2019-04-27T01:33:03.174Z,62.75
2019-04-27T01:34:03.323Z,62.75
2019-04-27T01:35:03.469Z,62.94
2019-04-27T01:36:03.611Z,61.90
2019-04-27T01:37:03.757Z,60.85
2019-04-27T01:38:03.913Z,60.47
2019-04-27T01:39:04.049Z,60.66
2019-04-27T01:40:04.199Z,59.99
2019-04-27T01:41:04.346Z,58.37
2019-04-27T01:42:04.493Z,57.62
2019-04-27T01:43:04.638Z,56.95
2019-04-27T01:44:04.783Z,56.95
2019-04-27T01:45:04.929Z,56.10
2019-04-27T01:46:05.080Z,56.38
2019-04-27T01:47:05.222Z,56.29
2019-04-27T01:48:05.368Z,56.57
2019-04-27T01:49:05.515Z,56.10
2019-04-27T01:50:05.658Z,56.38
2019-04-27T01:51:05.807Z,56.85
2019-04-27T01:52:05.951Z,57.14
2019-04-27T01:53:06.098Z,57.04
2019-04-27T01:54:06.246Z,57.04
2019-04-27T01:55:06.391Z,56.16
2019-04-27T01:56:06.539Z,55.69
2019-04-27T01:57:06.686Z,55.40
2019-04-27T01:58:08.827Z,55.90
2019-04-27T01:59:08.618Z,55.90
2019-04-27T02:00:07.125Z,55.52
2019-04-27T02:01:07.270Z,55.71
2019-04-27T02:02:08.794Z,56.57
2019-04-27T02:03:08.563Z,57.33
2019-04-27T02:04:09.244Z,57.71
2019-04-27T02:05:08.934Z,58.09
2019-04-27T02:06:09.207Z,59.80
2019-04-27T02:07:09.080Z,60.18
2019-04-27T02:08:09.518Z,59.80
2019-04-27T02:09:08.537Z,60.57
2019-04-27T02:10:08.990Z,61.04
2019-04-27T02:11:09.257Z,60.66
2019-04-27T02:12:09.372Z,60.57
2019-04-27T02:13:09.103Z,60.66
2019-04-27T02:14:09.550Z,59.05
2019-04-27T02:15:10.632Z,58.76
2019-04-27T02:16:09.467Z,57.43
2019-04-27T02:17:09.763Z,57.14
2019-04-27T02:18:09.758Z,56.48
2019-04-27T02:19:11.354Z,56.29
2019-04-27T02:20:10.048Z,56.38
2019-04-27T02:21:10.196Z,55.15
2019-04-27T02:22:10.341Z,54.19
2019-04-27T02:23:10.486Z,53.72
2019-04-27T02:24:11.266Z,53.34
2019-04-27T02:25:10.781Z,53.15
2019-04-27T02:26:10.926Z,52.86
2019-04-27T02:27:11.073Z,52.86
2019-04-27T02:28:11.222Z,52.01
2019-04-27T02:29:11.367Z,51.70
2019-04-27T02:30:11.833Z,51.25
2019-04-27T02:31:11.662Z,51.06
2019-04-27T02:32:11.808Z,51.43
2019-04-27T02:33:12.798Z,51.25
2019-04-27T02:34:12.100Z,51.15
2019-04-27T02:35:12.252Z,51.15
2019-04-27T02:36:15.131Z,52.39
2019-04-27T02:37:12.544Z,52.01
2019-04-27T02:38:12.690Z,52.48
2019-04-27T02:39:12.841Z,52.20
2019-04-27T02:40:12.980Z,52.39
2019-04-27T02:41:13.127Z,52.17
2019-04-27T02:42:13.276Z,51.91
2019-04-27T02:43:13.418Z,51.34
2019-04-27T02:44:13.577Z,51.34
2019-04-27T02:45:13.713Z,51.62
2019-04-27T02:46:13.857Z,52.20
2019-04-27T02:47:14.005Z,52.67
2019-04-27T02:48:14.149Z,52.76
2019-04-27T02:49:14.300Z,52.96
2019-04-27T02:50:14.443Z,52.86
2019-04-27T02:51:14.595Z,53.24
2019-04-27T02:52:14.735Z,53.34
2019-04-27T02:53:14.880Z,54.57
2019-04-27T02:54:15.089Z,56.29
2019-04-27T02:55:15.173Z,57.24
2019-04-27T02:56:15.326Z,57.04
2019-04-27T02:57:15.469Z,57.04
2019-04-27T02:58:15.616Z,57.14
2019-04-27T02:59:15.764Z,56.95
2019-04-27T03:00:15.919Z,57.43
2019-04-27T03:01:16.053Z,57.71
2019-04-27T03:02:16.203Z,57.71
2019-04-27T03:03:16.348Z,58.00
2019-04-27T03:04:16.496Z,58.66
2019-04-27T03:05:16.643Z,59.05
2019-04-27T03:06:16.789Z,59.05
2019-04-27T03:07:16.937Z,57.90
2019-04-27T03:08:19.850Z,58.28
2019-04-27T03:09:17.245Z,57.62
2019-04-27T03:10:19.726Z,57.90
2019-04-27T03:11:23.028Z,59.01
2019-04-27T03:12:19.224Z,58.54
2019-04-27T03:13:19.878Z,58.66
2019-04-27T03:14:29.638Z,58.85
2019-04-27T03:15:22.748Z,59.14
2019-04-27T03:16:20.401Z,58.66
2019-04-27T03:17:22.240Z,59.14
2019-04-27T03:18:19.510Z,58.54
2019-04-27T03:19:21.764Z,58.85
2019-04-27T03:20:20.118Z,58.57
2019-04-27T03:21:20.112Z,58.09
2019-04-27T03:22:19.492Z,57.81
2019-04-27T03:23:19.960Z,57.59
2019-04-27T03:24:19.938Z,57.87
2019-04-27T03:25:20.217Z,58.28
2019-04-27T03:26:19.749Z,57.68
2019-04-27T03:27:20.290Z,56.83
2019-04-27T03:28:20.283Z,56.07
2019-04-27T03:29:22.895Z,55.81
2019-04-27T03:30:22.668Z,55.43
2019-04-27T03:31:21.823Z,56.10
2019-04-27T03:32:22.788Z,55.81
2019-04-27T03:33:22.328Z,56.10
2019-04-27T03:34:22.377Z,56.00
2019-04-27T03:35:22.645Z,56.76
2019-04-27T03:36:22.835Z,57.71
2019-04-27T03:37:21.377Z,57.68
2019-04-27T03:38:21.489Z,55.78
2019-04-27T03:39:21.626Z,54.26
2019-04-27T03:40:21.780Z,52.64
2019-04-27T03:41:21.920Z,51.22
2019-04-27T03:42:22.069Z,49.98
2019-04-27T03:43:22.215Z,49.32
2019-04-27T03:44:22.366Z,49.06
2019-04-27T03:45:22.507Z,48.66
2019-04-27T03:46:22.653Z,48.11
2019-04-27T03:47:22.802Z,47.89
2019-04-27T03:48:22.954Z,47.80
2019-04-27T03:49:35.047Z,47.80
2019-04-27T03:50:23.242Z,46.94
2019-04-27T03:51:23.385Z,46.00
2019-04-27T03:52:23.533Z,45.14
2019-04-27T03:53:23.679Z,44.38
2019-04-27T03:54:23.827Z,44.67
2019-04-27T03:55:23.975Z,44.31
2019-04-27T03:56:24.120Z,44.19
2019-04-27T03:57:24.266Z,44.19
2019-04-27T03:58:24.414Z,44.12
2019-04-27T03:59:24.559Z,43.90
2019-04-27T04:00:24.720Z,44.21
2019-04-27T04:01:24.854Z,44.76
2019-04-27T04:02:25.007Z,45.04
2019-04-27T04:03:25.154Z,44.57
2019-04-27T04:04:25.291Z,44.28
2019-04-27T04:05:25.440Z,43.33
2019-04-27T04:06:25.586Z,43.14
2019-04-27T04:07:25.731Z,42.00
2019-04-27T04:08:25.882Z,42.19
2019-04-27T04:09:26.038Z,42.10
2019-04-27T04:10:26.169Z,41.43
2019-04-27T04:11:26.318Z,41.43
2019-04-27T04:12:26.464Z,40.39
2019-04-27T04:13:26.607Z,40.10
2019-04-27T04:14:26.759Z,40.01
2019-04-27T04:15:26.903Z,40.10
2019-04-27T04:16:29.507Z,40.48
2019-04-27T04:17:27.199Z,40.10
2019-04-27T04:18:29.680Z,39.91
2019-04-27T04:19:29.640Z,39.62
2019-04-27T04:20:30.279Z,39.06
2019-04-27T04:21:29.794Z,38.96
2019-04-27T04:22:29.967Z,38.01
2019-04-27T04:23:29.734Z,38.39
2019-04-27T04:24:29.322Z,37.73
2019-04-27T04:25:30.215Z,37.73
2019-04-27T04:26:29.454Z,37.73
2019-04-27T04:27:29.968Z,37.54
2019-04-27T04:28:29.662Z,37.44
2019-04-27T04:29:30.727Z,37.44
2019-04-27T04:30:30.241Z,38.20
2019-04-27T04:31:32.170Z,38.68
2019-04-27T04:32:29.953Z,38.87
2019-04-27T04:33:30.407Z,39.43
2019-04-27T04:34:30.029Z,40.01
2019-04-27T04:35:32.642Z,40.01
2019-04-27T04:36:30.293Z,40.29
2019-04-27T04:37:30.133Z,40.95
2019-04-27T04:38:30.671Z,41.62
2019-04-27T04:39:30.431Z,42.19
2019-04-27T04:40:30.883Z,42.47
2019-04-27T04:41:30.717Z,42.00
2019-04-27T04:42:30.865Z,41.72
2019-04-27T04:43:31.013Z,41.62
2019-04-27T04:44:31.160Z,41.53
2019-04-27T04:45:31.305Z,41.81
2019-04-27T04:46:31.453Z,41.43
2019-04-27T04:47:31.599Z,42.10
2019-04-27T04:48:31.744Z,42.47
2019-04-27T04:49:31.895Z,42.57
2019-04-27T04:50:32.039Z,42.29
2019-04-27T04:51:32.189Z,42.47
2019-04-27T04:52:32.337Z,42.95
2019-04-27T04:53:32.485Z,43.05
2019-04-27T04:54:32.634Z,42.57
2019-04-27T04:55:32.779Z,43.14
2019-04-27T04:56:32.925Z,43.14
2019-04-27T04:57:33.072Z,43.05
2019-04-27T04:58:33.219Z,42.67
2019-04-27T04:59:33.368Z,42.76
2019-04-27T05:00:33.513Z,42.76
2019-04-27T05:01:33.658Z,42.95
2019-04-27T05:02:33.804Z,43.24
2019-04-27T05:03:33.950Z,42.19
2019-04-27T05:04:34.098Z,40.86
2019-04-27T05:05:34.242Z,40.48
2019-04-27T05:06:34.389Z,40.10
2019-04-27T05:07:34.535Z,39.91
2019-04-27T05:08:34.680Z,40.20
2019-04-27T05:09:34.829Z,40.20
2019-04-27T05:10:34.975Z,39.72
2019-04-27T05:11:35.122Z,39.62
2019-04-27T05:12:35.268Z,38.87
2019-04-27T05:13:35.417Z,39.06
2019-04-27T05:14:35.562Z,38.77
2019-04-27T05:15:35.707Z,39.62
2019-04-27T05:16:35.856Z,39.53
2019-04-27T05:17:36.002Z,39.25
2019-04-27T05:18:36.149Z,39.06
2019-04-27T05:19:36.298Z,38.68
2019-04-27T05:20:36.443Z,38.20
2019-04-27T05:21:36.589Z,38.29
2019-04-27T05:22:36.736Z,37.44
2019-04-27T05:23:38.724Z,36.77
2019-04-27T05:24:37.028Z,36.21
2019-04-27T05:25:38.873Z,36.02
2019-04-27T05:26:37.320Z,36.40
2019-04-27T05:27:38.966Z,35.83
2019-04-27T05:28:38.399Z,36.11
2019-04-27T05:29:38.958Z,36.49
2019-04-27T05:30:39.075Z,37.54
2019-04-27T05:31:38.805Z,37.44
2019-04-27T05:32:39.361Z,36.68
2019-04-27T05:33:38.892Z,37.15
2019-04-27T05:34:39.455Z,36.68
2019-04-27T05:35:40.983Z,36.11
2019-04-27T05:36:43.475Z,35.73
2019-04-27T05:37:39.086Z,34.89
2019-04-27T05:38:41.923Z,35.06
2019-04-27T05:39:39.227Z,34.89
2019-04-27T05:40:39.881Z,35.94
2019-04-27T05:41:41.755Z,37.25
2019-04-27T05:42:39.831Z,37.35
2019-04-27T05:43:39.816Z,37.37
2019-04-27T05:44:45.765Z,37.37
2019-04-27T05:45:40.112Z,36.51
2019-04-27T05:46:40.258Z,36.22
2019-04-27T05:47:43.319Z,36.13
2019-04-27T05:48:40.555Z,37.65
2019-04-27T05:49:44.256Z,37.63
2019-04-27T05:50:45.613Z,38.31
2019-04-27T05:51:42.000Z,36.98
2019-04-27T05:52:41.144Z,37.18
2019-04-27T05:53:41.291Z,37.27
2019-04-27T05:54:41.439Z,37.74
2019-04-27T05:55:41.583Z,37.46
2019-04-27T05:56:41.732Z,38.31
2019-04-27T05:57:41.879Z,38.31
2019-04-27T05:58:42.038Z,39.26
2019-04-27T05:59:42.172Z,42.79
2019-04-27T06:00:42.319Z,43.07
2019-04-27T06:01:42.472Z,44.49
2019-04-27T06:02:42.614Z,46.30
2019-04-27T06:03:42.762Z,46.04
2019-04-27T06:04:42.909Z,47.73
2019-04-27T06:05:43.055Z,47.75
2019-04-27T06:06:43.203Z,47.92
2019-04-27T06:07:43.351Z,48.03
2019-04-27T06:08:43.498Z,48.61
2019-04-27T06:09:43.646Z,52.13
2019-04-27T06:10:43.795Z,52.51
2019-04-27T06:11:43.943Z,53.46
2019-04-27T06:12:44.089Z,56.12
2019-04-27T06:13:44.236Z,58.98
2019-04-27T06:14:44.384Z,59.33
2019-04-27T06:15:44.531Z,57.71
2019-04-27T06:16:44.678Z,55.52
2019-04-27T06:17:44.826Z,52.98
2019-04-27T06:18:44.975Z,54.19
2019-04-27T06:19:45.128Z,54.48
2019-04-27T06:20:53.401Z,54.48
2019-04-27T06:21:45.418Z,55.33
2019-04-27T06:22:45.566Z,53.94
2019-04-27T06:23:45.713Z,52.80
2019-04-27T06:24:45.863Z,56.31
2019-04-27T06:25:46.009Z,58.59
2019-04-27T06:26:46.158Z,59.45
2019-04-27T06:27:46.308Z,60.15
2019-04-27T06:28:46.455Z,64.69
2019-04-27T06:29:46.605Z,64.24
2019-04-27T06:30:46.751Z,64.43
2019-04-27T06:31:46.898Z,69.48
2019-04-27T06:32:47.047Z,70.43
2019-04-27T06:33:47.196Z,73.38
2019-04-27T06:34:48.892Z,73.95
2019-04-27T06:35:47.490Z,72.42
2019-04-27T06:36:48.665Z,75.19
2019-04-27T06:37:49.266Z,75.85
2019-04-27T06:38:48.576Z,78.99
2019-04-27T06:39:49.485Z,80.61
2019-04-27T06:40:49.011Z,81.28
2019-04-27T06:41:49.060Z,81.13
2019-04-27T06:42:48.732Z,80.55
2019-04-27T06:43:49.485Z,83.94
2019-04-27T06:44:49.481Z,81.85
2019-04-27T06:45:48.982Z,79.32
2019-04-27T06:46:49.158Z,78.17
2019-04-27T06:47:51.293Z,78.94
2019-04-27T06:48:49.614Z,80.55
2019-04-27T06:49:49.641Z,82.80
2019-04-27T06:51:02.439Z,82.61
2019-04-27T06:51:49.954Z,80.61
2019-04-27T06:52:50.024Z,78.71
2019-04-27T06:53:50.173Z,78.04
2019-04-27T06:54:50.320Z,78.80
2019-04-27T06:55:50.469Z,76.81
2019-04-27T06:56:50.619Z,77.19
2019-04-27T06:57:50.768Z,72.90
2019-04-27T06:58:50.919Z,71.09
2019-04-27T06:59:51.067Z,72.05
2019-04-27T07:00:51.215Z,73.19
2019-04-27T07:01:51.364Z,70.90
2019-04-27T07:02:51.518Z,69.76
2019-04-27T07:03:51.649Z,70.14
2019-04-27T07:04:51.798Z,70.43
2019-04-27T07:05:51.947Z,70.47
2019-04-27T07:06:55.857Z,70.84
2019-04-27T07:07:52.247Z,72.14
2019-04-27T07:08:55.147Z,72.56
2019-04-27T07:09:52.545Z,70.37
2019-04-27T07:10:52.691Z,70.65
2019-04-27T07:11:52.842Z,72.17
2019-04-27T07:12:53.000Z,71.51
2019-04-27T07:13:53.142Z,72.85
2019-04-27T07:14:55.159Z,72.94
2019-04-27T07:15:53.439Z,74.37
2019-04-27T07:16:53.589Z,74.98
2019-04-27T07:17:53.738Z,79.07
2019-04-27T07:18:53.887Z,81.26
2019-04-27T07:19:54.036Z,84.22
2019-04-27T07:20:54.184Z,83.74
2019-04-27T07:21:54.337Z,85.17
2019-04-27T07:22:54.484Z,83.93
2019-04-27T07:23:54.634Z,82.41
2019-04-27T07:24:54.790Z,82.03
2019-04-27T07:25:54.932Z,81.36
2019-04-27T07:26:55.085Z,80.41
2019-04-27T07:27:55.234Z,79.59
2019-04-27T07:28:55.381Z,81.40
2019-04-27T07:29:55.530Z,82.54
2019-04-27T07:30:55.679Z,85.60
2019-04-27T07:31:55.827Z,90.64
2019-04-27T07:32:55.974Z,88.17
2019-04-27T07:33:56.123Z,85.60
2019-04-27T07:34:56.275Z,88.55
2019-04-27T07:35:56.421Z,93.79
2019-04-27T07:36:56.572Z,91.69
2019-04-27T07:37:56.732Z,89.74
2019-04-27T07:38:56.872Z,89.93
2019-04-27T07:39:57.018Z,99.90
2019-04-27T07:40:58.671Z,92.55
2019-04-27T07:41:58.567Z,99.99
2019-04-27T07:42:59.259Z,99.99
2019-04-27T07:43:58.602Z,99.99
2019-04-27T07:44:59.424Z,99.99
2019-04-27T07:45:59.059Z,99.99
2019-04-27T07:46:59.463Z,99.99
2019-04-27T07:47:59.147Z,99.99
2019-04-27T07:48:59.469Z,99.99
2019-04-27T07:49:59.268Z,99.99
2019-04-27T07:50:59.092Z,99.99
2019-04-27T07:51:59.020Z,99.99
2019-04-27T07:52:58.967Z,99.99
2019-04-27T07:53:59.114Z,99.99
2019-04-27T07:54:59.263Z,99.99
2019-04-27T07:55:59.413Z,99.99
2019-04-27T07:56:59.564Z,99.99
2019-04-27T07:57:59.913Z,99.99
2019-04-27T07:58:59.865Z,99.99
2019-04-27T08:00:00.016Z,99.99
2019-04-27T08:01:00.166Z,99.99
2019-04-27T08:02:00.318Z,99.99
2019-04-27T08:03:00.465Z,99.99
2019-04-27T08:04:00.620Z,99.99
2019-04-27T08:05:00.767Z,99.99
2019-04-27T08:06:00.917Z,99.99
2019-04-27T08:07:01.069Z,99.99
2019-04-27T08:08:01.227Z,99.99
2019-04-27T08:09:01.365Z,99.99
2019-04-27T08:10:01.916Z,99.99
2019-04-27T08:11:01.668Z,99.99
2019-04-27T08:12:01.820Z,99.99
2019-04-27T08:13:01.967Z,99.99
2019-04-27T08:14:02.119Z,99.99
2019-04-27T08:15:02.271Z,99.99
2019-04-27T08:16:02.424Z,99.99
2019-04-27T08:17:02.574Z,99.99
2019-04-27T08:18:02.730Z,99.99
2019-04-27T08:19:02.877Z,99.99
2019-04-27T08:20:03.033Z,99.99
2019-04-27T08:21:03.179Z,99.99
2019-04-27T08:22:03.330Z,99.99
2019-04-27T08:23:03.485Z,99.99
2019-04-27T08:24:03.666Z,99.99
2019-04-27T08:25:03.785Z,99.99
2019-04-27T08:26:03.923Z,99.99
2019-04-27T08:27:04.069Z,99.99
2019-04-27T08:28:04.213Z,99.99
2019-04-27T08:29:04.364Z,99.99
2019-04-27T08:30:04.516Z,99.99
2019-04-27T08:31:04.665Z,99.99
2019-04-27T08:32:04.815Z,99.99
2019-04-27T08:33:04.967Z,99.99
2019-04-27T08:34:05.117Z,99.99
2019-04-27T08:35:05.280Z,99.99
2019-04-27T08:36:05.416Z,99.99
2019-04-27T08:37:05.569Z,99.99
2019-04-27T08:38:05.722Z,99.99
2019-04-27T08:39:05.873Z,99.99
2019-04-27T08:40:06.031Z,99.99
2019-04-27T08:41:06.174Z,99.99
2019-04-27T08:42:06.325Z,99.99
2019-04-27T08:43:06.476Z,99.99
2019-04-27T08:44:06.628Z,99.99
2019-04-27T08:45:06.779Z,99.99
2019-04-27T08:46:08.630Z,99.99
2019-04-27T08:47:07.087Z,99.99
2019-04-27T08:48:09.125Z,99.99
2019-04-27T08:49:08.385Z,99.99
2019-04-27T08:50:09.113Z,99.99
2019-04-27T08:51:09.410Z,99.99
2019-04-27T08:52:09.376Z,99.99
2019-04-27T08:53:09.719Z,99.99
2019-04-27T08:54:09.188Z,99.99
2019-04-27T08:55:09.578Z,99.99
2019-04-27T08:56:09.397Z,99.99
2019-04-27T08:57:09.712Z,99.99
2019-04-27T08:58:10.050Z,99.99
2019-04-27T08:59:09.532Z,99.99
2019-04-27T09:00:09.559Z,99.99
2019-04-27T09:01:10.320Z,99.99
2019-04-27T09:02:09.350Z,99.99
2019-04-27T09:03:09.683Z,99.99
2019-04-27T09:04:11.281Z,99.99
2019-04-27T09:05:09.803Z,99.99
2019-04-27T09:06:09.953Z,99.99
2019-04-27T09:07:10.128Z,99.99
2019-04-27T09:08:10.255Z,99.99
2019-04-27T09:09:10.408Z,99.99
2019-04-27T09:10:10.557Z,99.99
2019-04-27T09:11:10.708Z,99.99
2019-04-27T09:12:10.862Z,99.99
2019-04-27T09:13:11.014Z,99.99
2019-04-27T09:14:11.164Z,99.99
2019-04-27T09:15:11.315Z,99.99
2019-04-27T09:16:11.465Z,99.99
2019-04-27T09:17:11.616Z,99.19
2019-04-27T09:18:11.765Z,98.38
2019-04-27T09:19:11.919Z,98.90
2019-04-27T09:20:12.071Z,99.99
2019-04-27T09:21:12.220Z,99.99
2019-04-27T09:22:16.426Z,99.99
2019-04-27T09:23:12.517Z,99.72
2019-04-27T09:24:12.671Z,98.86
2019-04-27T09:25:12.820Z,98.47
2019-04-27T09:26:12.970Z,99.00
2019-04-27T09:27:13.124Z,98.33
2019-04-27T09:28:13.275Z,96.89
2019-04-27T09:29:13.613Z,93.54
2019-04-27T09:30:13.538Z,93.45
2019-04-27T09:31:13.685Z,93.21
2019-04-27T09:32:13.839Z,91.92
2019-04-27T09:33:13.990Z,92.58
2019-04-27T09:34:14.787Z,94.79
2019-04-27T09:35:15.840Z,93.50
2019-04-27T09:36:14.446Z,93.40
2019-04-27T09:37:15.998Z,93.55
2019-04-27T09:38:14.752Z,94.98
2019-04-27T09:39:16.300Z,94.41
2019-04-27T09:40:15.055Z,94.60
2019-04-27T09:41:16.937Z,93.93
2019-04-27T09:42:16.754Z,94.31
2019-04-27T09:43:15.789Z,95.17
2019-04-27T09:44:16.063Z,95.94
2019-04-27T09:45:15.962Z,97.18
2019-04-27T09:46:15.968Z,95.94
2019-04-27T09:47:16.485Z,97.18
2019-04-27T09:48:17.574Z,96.70
2019-04-27T09:49:16.424Z,96.80
2019-04-27T09:50:16.577Z,96.70
2019-04-27T09:51:16.729Z,95.98
2019-04-27T09:52:24.470Z,97.13
2019-04-27T09:53:17.030Z,96.89
2019-04-27T09:54:17.182Z,97.18
2019-04-27T09:55:17.333Z,97.28
2019-04-27T09:56:17.488Z,96.99
2019-04-27T09:57:17.643Z,97.18
2019-04-27T09:58:18.619Z,96.42
2019-04-27T09:59:17.943Z,96.13
2019-04-27T10:00:18.092Z,97.47
2019-04-27T10:01:18.255Z,97.99
2019-04-27T10:02:18.395Z,98.09
2019-04-27T10:03:18.548Z,98.71
2019-04-27T10:04:18.697Z,97.80
2019-04-27T10:05:18.847Z,98.47
2019-04-27T10:06:19.003Z,98.85
2019-04-27T10:07:19.151Z,99.14
2019-04-27T10:08:19.303Z,99.29
2019-04-27T10:09:19.455Z,98.75
2019-04-27T10:10:19.609Z,99.52
2019-04-27T10:11:19.755Z,99.81
2019-04-27T10:12:19.908Z,99.24
2019-04-27T10:13:20.057Z,98.66
2019-04-27T10:14:20.214Z,98.75
2019-04-27T10:15:20.360Z,99.14
2019-04-27T10:16:20.511Z,99.81
2019-04-27T10:17:20.662Z,99.99
2019-04-27T10:18:20.819Z,99.99
2019-04-27T10:19:28.576Z,99.99
2019-04-27T10:20:21.116Z,99.99
2019-04-27T10:21:21.266Z,99.99
2019-04-27T10:22:21.514Z,99.99
2019-04-27T10:23:21.562Z,99.99
2019-04-27T10:24:21.731Z,99.99
2019-04-27T10:25:21.883Z,99.99
2019-04-27T10:26:22.036Z,99.99
2019-04-27T10:27:22.186Z,99.99
2019-04-27T10:28:22.336Z,99.99
2019-04-27T10:29:22.487Z,99.99
2019-04-27T10:30:22.637Z,99.99
2019-04-27T10:31:22.788Z,99.99
2019-04-27T10:32:22.936Z,99.99
2019-04-27T10:33:23.086Z,99.99
2019-04-27T10:34:23.240Z,99.99
2019-04-27T10:35:23.386Z,99.99
2019-04-27T10:36:23.534Z,99.99
2019-04-27T10:37:23.684Z,99.99
2019-04-27T10:38:25.667Z,99.99
2019-04-27T10:39:27.396Z,99.99
2019-04-27T10:40:24.134Z,99.99
2019-04-27T10:41:25.901Z,99.99
2019-04-27T10:42:25.344Z,99.99
2019-04-27T10:43:25.823Z,99.99
2019-04-27T10:44:26.553Z,99.99
2019-04-27T10:45:24.895Z,99.99
2019-04-27T10:46:25.793Z,99.99
2019-04-27T10:47:26.033Z,99.99
2019-04-27T10:48:26.537Z,99.99
2019-04-27T10:49:25.488Z,99.99
2019-04-27T10:50:26.547Z,99.99
2019-04-27T10:51:26.154Z,99.99
2019-04-27T10:52:25.941Z,99.99
2019-04-27T10:53:26.896Z,99.99
2019-04-27T10:54:26.239Z,99.99
2019-04-27T10:55:26.393Z,99.99
2019-04-27T10:56:27.369Z,99.99
2019-04-27T10:57:26.693Z,99.99
2019-04-27T10:58:27.431Z,99.99
2019-04-27T10:59:27.651Z,99.99
2019-04-27T11:00:27.141Z,99.99
2019-04-27T11:01:27.292Z,99.99
2019-04-27T11:02:27.445Z,99.99
2019-04-27T11:03:27.590Z,99.99
2019-04-27T11:04:27.743Z,99.99
2019-04-27T11:05:31.103Z,99.99
2019-04-27T11:06:28.041Z,99.99
2019-04-27T11:07:28.192Z,99.99
2019-04-27T11:08:28.339Z,99.99
2019-04-27T11:09:28.489Z,99.99
2019-04-27T11:10:28.640Z,99.99
2019-04-27T11:11:28.788Z,99.99
2019-04-27T11:12:28.943Z,99.99
2019-04-27T11:13:29.090Z,99.99
2019-04-27T11:14:29.250Z,99.99
2019-04-27T11:15:29.391Z,99.99
2019-04-27T11:16:29.539Z,99.99
2019-04-27T11:17:29.688Z,99.99
2019-04-27T11:18:29.837Z,99.99
2019-04-27T11:19:29.987Z,99.99
2019-04-27T11:20:30.141Z,99.99
2019-04-27T11:21:30.297Z,99.99
2019-04-27T11:22:30.443Z,99.99
2019-04-27T11:23:30.592Z,99.99
2019-04-27T11:24:30.743Z,99.99
2019-04-27T11:25:30.891Z,99.99
2019-04-27T11:26:31.041Z,99.99
2019-04-27T11:27:31.191Z,99.99
2019-04-27T11:28:31.340Z,99.99
2019-04-27T11:29:31.493Z,99.99
2019-04-27T11:30:31.643Z,99.99
2019-04-27T11:31:31.794Z,99.99
2019-04-27T11:32:31.945Z,99.99
2019-04-27T11:33:32.096Z,99.99
2019-04-27T11:34:32.245Z,99.99
2019-04-27T11:35:32.398Z,99.99
2019-04-27T11:36:32.548Z,99.99
2019-04-27T11:37:32.706Z,99.99
2019-04-27T11:38:32.849Z,99.99
2019-04-27T11:39:32.999Z,99.99
2019-04-27T11:40:33.151Z,99.99
2019-04-27T11:41:33.302Z,99.99
2019-04-27T11:42:33.455Z,99.99
2019-04-27T11:43:33.604Z,99.99
2019-04-27T11:44:33.754Z,99.99
2019-04-27T11:45:33.906Z,99.99
2019-04-27T11:46:34.059Z,99.99
2019-04-27T11:47:34.208Z,99.99
2019-04-27T11:48:36.063Z,99.99
2019-04-27T11:49:35.952Z,99.99
2019-04-27T11:50:35.779Z,99.99
2019-04-27T11:51:36.569Z,99.99
2019-04-27T11:52:34.956Z,99.99
2019-04-27T11:53:35.976Z,99.99
2019-04-27T11:54:35.590Z,99.99
2019-04-27T11:55:35.415Z,99.99
2019-04-27T11:56:36.206Z,99.99
2019-04-27T11:57:37.448Z,99.99
2019-04-27T11:58:35.862Z,99.99
2019-04-27T11:59:36.026Z,99.99
2019-04-27T12:00:36.510Z,99.99
2019-04-27T12:01:36.312Z,99.99
2019-04-27T12:02:36.460Z,99.99
2019-04-27T12:03:36.612Z,99.99
2019-04-27T12:04:36.763Z,99.99
2019-04-27T12:05:36.911Z,99.99
2019-04-27T12:06:37.087Z,99.99
2019-04-27T12:07:37.202Z,99.99
2019-04-27T12:08:37.351Z,99.99
2019-04-27T12:09:37.501Z,99.99
2019-04-27T12:10:37.653Z,99.99
2019-04-27T12:11:37.804Z,99.99
2019-04-27T12:12:37.954Z,99.99
2019-04-27T12:13:38.103Z,99.99
2019-04-27T12:14:38.256Z,99.99
2019-04-27T12:15:38.405Z,99.99
2019-04-27T12:16:38.556Z,99.99
2019-04-27T12:17:38.708Z,99.99
2019-04-27T12:18:38.856Z,99.99
2019-04-27T12:19:39.008Z,99.99
2019-04-27T12:20:39.160Z,99.99
2019-04-27T12:21:39.308Z,99.99
2019-04-27T12:22:39.459Z,99.99
2019-04-27T12:23:41.414Z,99.99
2019-04-27T12:24:39.761Z,99.99
2019-04-27T12:25:39.915Z,99.99
2019-04-27T12:26:40.061Z,99.99
2019-04-27T12:27:40.214Z,99.99
2019-04-27T12:28:40.366Z,99.99
2019-04-27T12:29:40.514Z,99.99
2019-04-27T12:30:40.663Z,99.99
2019-04-27T12:31:43.830Z,99.99
2019-04-27T12:32:40.965Z,99.99
2019-04-27T12:33:41.129Z,99.99
2019-04-27T12:34:41.271Z,99.99
2019-04-27T12:35:41.419Z,99.99
2019-04-27T12:36:41.572Z,99.99
2019-04-27T12:37:41.722Z,99.99
2019-04-27T12:38:41.871Z,99.99
2019-04-27T12:39:42.025Z,99.99
2019-04-27T12:40:42.175Z,99.99
2019-04-27T12:41:42.324Z,99.99
2019-04-27T12:42:42.487Z,99.99
2019-04-27T12:43:42.620Z,99.99
2019-04-27T12:44:42.771Z,99.99
2019-04-27T12:45:43.725Z,99.99
2019-04-27T12:46:43.072Z,99.99
2019-04-27T12:47:43.228Z,99.99
2019-04-27T12:48:43.376Z,99.99
2019-04-27T12:49:43.530Z,99.99
2019-04-27T12:50:43.685Z,99.99
2019-04-27T12:51:45.608Z,99.99
2019-04-27T12:52:43.989Z,99.99
2019-04-27T12:53:50.815Z,99.99
2019-04-27T12:54:44.288Z,99.99